createdAt,value
2023-04-05T00:02:18.814Z,5.73
2023-04-05T00:04:52.297Z,5.97
2023-04-05T00:07:21.641Z,5.82
2023-04-05T00:09:50.342Z,5.90
2023-04-05T00:12:18.144Z,5.32
2023-04-05T00:14:46.462Z,5.55
2023-04-05T00:17:14.315Z,5.63
2023-04-05T00:19:43.204Z,5.35
2023-04-05T00:22:12.348Z,5.43
2023-04-05T00:24:42.036Z,5.54
2023-04-05T00:27:10.062Z,5.60
2023-04-05T00:29:37.899Z,5.42
2023-04-05T00:32:06.238Z,5.52
2023-04-05T00:34:34.323Z,5.45
2023-04-05T00:37:02.063Z,5.61
2023-04-05T00:39:31.122Z,5.58
2023-04-05T00:41:58.828Z,5.75
2023-04-05T00:44:26.657Z,5.80
2023-04-05T00:46:54.468Z,5.87
2023-04-05T00:49:22.338Z,5.72
2023-04-05T00:51:50.778Z,5.54
2023-04-05T00:54:19.602Z,5.11
2023-04-05T00:56:48.800Z,5.66
2023-04-05T00:59:16.544Z,5.39
2023-04-05T01:01:55.156Z,5.52
2023-04-05T01:04:26.337Z,5.54
2023-04-05T01:07:06.071Z,5.33
2023-04-05T01:09:54.808Z,5.48
2023-04-05T01:12:28.325Z,5.34
2023-04-05T01:14:56.784Z,5.56
2023-04-05T01:17:28.313Z,5.73
2023-04-05T01:19:59.436Z,5.28
2023-04-05T01:23:00.991Z,5.26
2023-04-05T01:25:48.568Z,6.03
2023-04-05T01:28:49.820Z,6.22
2023-04-05T01:31:38.559Z,6.30
2023-04-05T01:34:14.681Z,6.02
2023-04-05T01:36:47.136Z,6.13
2023-04-05T01:39:18.456Z,6.23
2023-04-05T01:41:46.184Z,6.56
2023-04-05T01:44:13.992Z,6.26
2023-04-05T01:46:43.402Z,6.24
2023-04-05T01:49:11.746Z,6.53
2023-04-05T01:51:42.013Z,5.77
2023-04-05T01:54:09.842Z,6.35
2023-04-05T01:56:37.739Z,5.81
2023-04-05T01:59:05.546Z,6.08
2023-04-05T02:01:33.577Z,6.17
2023-04-05T02:04:02.981Z,6.39
2023-04-05T02:06:32.001Z,6.50
2023-04-05T02:08:59.752Z,6.40
2023-04-05T02:11:27.538Z,5.96
2023-04-05T02:13:55.285Z,6.43
2023-04-05T02:16:23.360Z,6.47
2023-04-05T02:18:51.212Z,6.63
2023-04-05T02:21:21.885Z,6.33
2023-04-05T02:23:49.724Z,6.38
2023-04-05T02:26:17.447Z,6.36
2023-04-05T02:28:45.279Z,6.39
2023-04-05T02:31:13.224Z,6.31
2023-04-05T02:33:41.502Z,6.57
2023-04-05T02:36:10.412Z,6.58
2023-04-05T02:38:39.515Z,6.49
2023-04-05T02:41:09.952Z,6.44
2023-04-05T02:43:37.714Z,6.43
2023-04-05T02:46:05.584Z,6.24
2023-04-05T02:48:33.759Z,6.37
2023-04-05T02:51:01.582Z,6.64
2023-04-05T02:53:29.270Z,6.84
2023-04-05T02:55:59.857Z,6.31
2023-04-05T02:58:28.498Z,6.53
2023-04-05T03:00:56.301Z,6.78
2023-04-05T03:03:24.743Z,6.75
2023-04-05T03:06:00.409Z,6.69
2023-04-05T03:08:28.789Z,6.36
2023-04-05T03:10:57.889Z,6.70
2023-04-05T03:13:25.766Z,6.85
2023-04-05T03:15:55.163Z,6.70
2023-04-05T03:18:25.700Z,6.59
2023-04-05T03:20:56.805Z,6.36
2023-04-05T03:23:27.358Z,6.73
2023-04-05T03:25:57.158Z,7.14
2023-04-05T03:28:26.346Z,6.76
2023-04-05T03:30:54.309Z,6.90
2023-04-05T03:33:22.630Z,6.56
2023-04-05T03:35:50.490Z,6.81
2023-04-05T03:38:18.595Z,6.77
2023-04-05T03:40:46.594Z,6.76
2023-04-05T03:43:14.424Z,6.81
2023-04-05T03:45:43.663Z,6.55
2023-04-05T03:48:11.716Z,6.65
2023-04-05T03:50:39.427Z,6.73
2023-04-05T03:53:07.602Z,6.48
2023-04-05T03:55:35.290Z,6.72
2023-04-05T03:58:02.985Z,6.85
2023-04-05T04:00:30.714Z,6.70
2023-04-05T04:02:59.825Z,6.59
2023-04-05T04:05:27.879Z,6.45
2023-04-05T04:07:55.691Z,6.62
2023-04-05T04:10:23.410Z,6.38
2023-04-05T04:12:51.105Z,6.94
2023-04-05T04:15:19.328Z,6.70
2023-04-05T04:17:47.081Z,7.24
2023-04-05T04:20:16.213Z,7.22
2023-04-05T04:22:43.904Z,7.00
2023-04-05T04:25:14.693Z,7.09
2023-04-05T04:27:44.612Z,6.96
2023-04-05T04:30:15.728Z,7.11
2023-04-05T04:32:53.698Z,6.78
2023-04-05T04:35:25.796Z,6.58
2023-04-05T04:37:57.928Z,6.92
2023-04-05T04:40:26.872Z,6.86
2023-04-05T04:42:54.800Z,6.68
2023-04-05T04:45:22.528Z,6.79
2023-04-05T04:47:53.630Z,6.63
2023-04-05T04:50:23.052Z,6.81
2023-04-05T04:52:50.811Z,7.12
2023-04-05T04:55:18.552Z,6.90
2023-04-05T04:57:46.283Z,7.14
2023-04-05T05:00:15.623Z,6.95
2023-04-05T05:02:44.176Z,7.08
2023-04-05T05:05:12.768Z,7.54
2023-04-05T05:07:42.806Z,7.24
2023-04-05T05:10:12.119Z,6.84
2023-04-05T05:12:40.205Z,7.62
2023-04-05T05:15:09.522Z,7.64
2023-04-05T05:17:37.567Z,7.16
2023-04-05T05:20:10.052Z,7.41
2023-04-05T05:22:38.618Z,7.12
2023-04-05T05:25:09.982Z,7.47
2023-04-05T05:27:37.691Z,7.55
2023-04-05T05:30:06.226Z,7.57
2023-04-05T05:32:33.971Z,7.67
2023-04-05T05:35:02.218Z,7.39
2023-04-05T05:37:34.063Z,7.19
2023-04-05T05:40:02.619Z,6.83
2023-04-05T05:42:32.524Z,7.49
2023-04-05T05:45:04.110Z,7.30
2023-04-05T05:47:31.913Z,7.67
2023-04-05T05:49:59.790Z,8.21
2023-04-05T05:52:27.549Z,7.98
2023-04-05T05:54:55.238Z,8.07
2023-04-05T05:57:23.012Z,8.09
2023-04-05T05:59:52.094Z,8.35
2023-04-05T06:02:20.672Z,7.90
2023-04-05T06:04:49.695Z,8.00
2023-04-05T06:07:17.532Z,7.93
2023-04-05T06:09:45.999Z,8.09
2023-04-05T06:12:13.784Z,8.26
2023-04-05T06:14:41.490Z,8.39
2023-04-05T06:17:10.665Z,8.68
2023-04-05T06:19:38.424Z,8.36
2023-04-05T06:22:06.146Z,8.29
2023-04-05T06:24:34.015Z,8.46
2023-04-05T06:27:02.201Z,8.62
2023-04-05T06:29:31.184Z,8.42
2023-04-05T06:31:58.913Z,7.96
2023-04-05T06:34:28.065Z,8.63
2023-04-05T06:36:55.941Z,8.54
2023-04-05T06:39:23.669Z,8.30
2023-04-05T06:41:51.439Z,8.29
2023-04-05T06:44:19.190Z,8.48
2023-04-05T06:46:46.933Z,8.11
2023-04-05T06:49:14.679Z,8.86
2023-04-05T06:51:43.757Z,8.60
2023-04-05T06:54:11.956Z,8.84
2023-04-05T06:56:40.074Z,9.01
2023-04-05T06:59:07.849Z,9.07
2023-04-05T07:01:35.871Z,9.02
2023-04-05T07:04:03.708Z,8.49
2023-04-05T07:06:33.915Z,8.84
2023-04-05T07:09:03.945Z,9.50
2023-04-05T07:11:32.741Z,9.44
2023-04-05T07:14:00.849Z,9.26
2023-04-05T07:16:29.070Z,9.16
2023-04-05T07:18:57.492Z,9.67
2023-04-05T07:21:27.087Z,10.00
2023-04-05T07:23:56.101Z,9.92
2023-04-05T07:26:25.203Z,9.56
2023-04-05T07:28:55.039Z,10.02
2023-04-05T07:31:22.752Z,9.60
2023-04-05T07:33:50.483Z,10.01
2023-04-05T07:36:18.237Z,8.77
2023-04-05T07:38:46.004Z,10.10
2023-04-05T07:41:16.525Z,9.59
2023-04-05T07:43:45.628Z,9.79
2023-04-05T07:46:13.481Z,10.81
2023-04-05T07:48:41.535Z,10.46
2023-04-05T07:51:11.192Z,10.72
2023-04-05T07:53:39.283Z,10.90
2023-04-05T07:56:08.178Z,10.67
2023-04-05T07:58:36.601Z,10.65
2023-04-05T08:01:06.129Z,11.08
2023-04-05T08:03:35.162Z,10.78
2023-04-05T08:06:11.413Z,11.08
2023-04-05T08:08:39.385Z,10.44
2023-04-05T08:11:07.178Z,10.78
2023-04-05T08:13:34.950Z,11.75
2023-04-05T08:16:02.908Z,10.33
2023-04-05T08:18:32.014Z,11.71
2023-04-05T08:20:59.784Z,11.12
2023-04-05T08:23:28.300Z,11.18
2023-04-05T08:25:56.071Z,12.33
2023-04-05T08:28:23.841Z,11.56
2023-04-05T08:30:54.608Z,11.31
2023-04-05T08:33:22.348Z,11.38
2023-04-05T08:35:51.523Z,12.24
2023-04-05T08:38:19.310Z,11.75
2023-04-05T08:40:48.448Z,12.38
2023-04-05T08:43:24.006Z,13.20
2023-04-05T08:45:53.108Z,13.44
2023-04-05T08:48:21.797Z,13.20
2023-04-05T08:50:54.665Z,12.13
2023-04-05T08:53:22.618Z,11.86
2023-04-05T08:55:52.006Z,12.59
2023-04-05T08:58:22.457Z,12.23
2023-04-05T09:00:51.902Z,11.72
2023-04-05T09:03:23.018Z,12.01
2023-04-05T09:05:53.365Z,13.26
2023-04-05T09:08:22.303Z,11.95
2023-04-05T09:10:52.333Z,12.89
2023-04-05T09:13:20.597Z,12.97
2023-04-05T09:15:48.797Z,13.10
2023-04-05T09:18:25.971Z,12.20
2023-04-05T09:21:04.057Z,12.66
2023-04-05T09:23:31.821Z,12.76
2023-04-05T09:25:59.628Z,12.94
2023-04-05T09:28:43.149Z,12.58
2023-04-05T09:31:10.983Z,12.72
2023-04-05T09:33:39.276Z,12.23
2023-04-05T09:36:08.956Z,12.33
2023-04-05T09:38:47.635Z,12.87
2023-04-05T09:41:15.487Z,13.01
2023-04-05T09:43:43.890Z,13.87
2023-04-05T09:46:31.236Z,13.91
2023-04-05T09:48:59.669Z,13.34
2023-04-05T09:51:35.906Z,12.83
2023-04-05T09:54:06.059Z,13.58
2023-04-05T09:56:37.220Z,13.38
2023-04-05T09:59:10.622Z,12.54
2023-04-05T10:01:41.227Z,11.60
2023-04-05T10:04:09.873Z,12.84
2023-04-05T10:06:40.605Z,11.78
2023-04-05T10:09:09.760Z,11.84
2023-04-05T10:11:38.490Z,11.58
2023-04-05T10:14:07.605Z,11.85
2023-04-05T10:16:44.763Z,12.33
2023-04-05T10:19:19.836Z,12.08
2023-04-05T10:21:50.254Z,13.25
2023-04-05T10:24:24.426Z,11.80
2023-04-05T10:27:04.243Z,12.91
2023-04-05T10:29:39.348Z,12.26
2023-04-05T10:32:15.025Z,12.56
2023-04-05T10:34:46.621Z,12.40
2023-04-05T10:37:36.645Z,12.41
2023-04-05T10:40:09.992Z,14.95
2023-04-05T10:42:44.192Z,13.57
2023-04-05T10:45:15.697Z,15.21
2023-04-05T10:47:49.834Z,13.33
2023-04-05T10:50:23.905Z,14.51
2023-04-05T10:52:54.253Z,14.63
2023-04-05T10:55:22.574Z,16.44
2023-04-05T10:57:51.581Z,16.76
2023-04-05T11:00:20.485Z,16.18
2023-04-05T11:02:50.465Z,16.39
2023-04-05T11:05:32.999Z,16.12
2023-04-05T11:08:09.860Z,16.30
2023-04-05T11:10:39.066Z,15.58
2023-04-05T11:13:10.066Z,15.15
2023-04-05T11:15:38.367Z,15.42
2023-04-05T11:18:10.980Z,16.91
2023-04-05T11:20:46.833Z,17.76
2023-04-05T11:23:18.669Z,18.07
2023-04-05T11:25:51.021Z,16.86
2023-04-05T11:28:31.954Z,15.71
2023-04-05T11:31:13.968Z,15.95
2023-04-05T11:34:00.028Z,16.50
2023-04-05T11:36:38.129Z,14.16
2023-04-05T11:39:25.982Z,14.24
2023-04-05T11:42:02.146Z,15.98
2023-04-05T11:44:34.249Z,15.43
2023-04-05T11:47:05.416Z,17.87
2023-04-05T11:49:34.669Z,14.32
2023-04-05T11:52:12.220Z,14.56
2023-04-05T11:54:45.925Z,15.76
2023-04-05T11:57:16.061Z,13.96
2023-04-05T11:59:44.591Z,13.23
2023-04-05T12:02:12.346Z,14.36
2023-04-05T12:04:40.717Z,12.83
2023-04-05T12:07:13.819Z,13.23
2023-04-05T12:10:08.480Z,12.85
2023-04-05T12:12:38.458Z,13.02
2023-04-05T12:15:09.388Z,13.02
2023-04-05T12:17:44.379Z,12.47
2023-04-05T12:20:13.498Z,13.04
2023-04-05T12:22:42.987Z,13.89
2023-04-05T12:25:12.593Z,13.13
2023-04-05T12:27:40.929Z,16.00
2023-04-05T12:30:10.964Z,15.06
2023-04-05T12:32:42.765Z,16.44
2023-04-05T12:35:14.491Z,16.09
2023-04-05T12:37:42.368Z,16.16
2023-04-05T12:40:12.841Z,13.68
2023-04-05T12:42:41.843Z,14.21
2023-04-05T12:45:13.352Z,14.83
2023-04-05T12:47:52.289Z,15.87
2023-04-05T12:50:26.018Z,15.47
2023-04-05T12:52:55.545Z,16.98
2023-04-05T12:55:24.997Z,15.33
2023-04-05T12:57:59.476Z,15.72
2023-04-05T13:00:29.023Z,13.75
2023-04-05T13:03:00.090Z,13.38
2023-04-05T13:05:29.558Z,12.87
2023-04-05T13:07:57.384Z,13.60
2023-04-05T13:10:27.504Z,13.82
2023-04-05T13:12:55.408Z,15.40
2023-04-05T13:15:23.493Z,17.00
2023-04-05T13:17:53.200Z,16.49
2023-04-05T13:20:21.571Z,16.42
2023-04-05T13:22:49.343Z,15.74
2023-04-05T13:25:17.504Z,17.14
2023-04-05T13:27:46.705Z,16.24
2023-04-05T13:30:14.725Z,16.82
2023-04-05T13:32:42.567Z,16.69
2023-04-05T13:35:11.023Z,16.11
2023-04-05T13:37:39.285Z,16.91
2023-04-05T13:40:08.466Z,15.01
2023-04-05T13:42:36.267Z,16.40
2023-04-05T13:45:06.180Z,14.63
2023-04-05T13:47:33.910Z,16.12
2023-04-05T13:50:02.724Z,16.78
2023-04-05T13:52:30.499Z,15.53
2023-04-05T13:55:03.243Z,16.50
2023-04-05T13:57:31.891Z,15.46
2023-04-05T13:59:59.822Z,15.00
2023-04-05T14:02:29.466Z,15.14
2023-04-05T14:04:57.304Z,16.03
2023-04-05T14:07:25.316Z,15.95
2023-04-05T14:09:53.102Z,15.39
2023-04-05T14:12:20.897Z,16.23
2023-04-05T14:14:48.726Z,15.79
2023-04-05T14:17:16.651Z,16.23
2023-04-05T14:19:45.934Z,15.93
2023-04-05T14:22:13.835Z,15.16
2023-04-05T14:24:41.682Z,16.74
2023-04-05T14:27:09.555Z,15.96
2023-04-05T14:29:37.399Z,15.43
2023-04-05T14:32:05.889Z,15.96
2023-04-05T14:34:33.844Z,15.89
2023-04-05T14:37:04.169Z,15.58
2023-04-05T14:39:32.074Z,16.99
2023-04-05T14:41:59.995Z,16.65
2023-04-05T14:44:27.972Z,16.59
2023-04-05T14:46:55.947Z,15.87
2023-04-05T14:49:23.824Z,16.16
2023-04-05T14:51:51.753Z,16.53
2023-04-05T14:54:21.016Z,16.60
2023-04-05T14:56:48.863Z,15.97
2023-04-05T14:59:16.975Z,13.55
2023-04-05T15:01:46.995Z,14.71
2023-04-05T15:04:14.998Z,14.84
2023-04-05T15:06:43.102Z,15.32
2023-04-05T15:09:10.970Z,16.18
2023-04-05T15:11:40.767Z,15.76
2023-04-05T15:14:13.401Z,14.45
2023-04-05T15:16:46.114Z,14.76
2023-04-05T15:19:13.968Z,14.73
2023-04-05T15:21:43.883Z,15.31
2023-04-05T15:24:12.422Z,15.13
2023-04-05T15:26:41.855Z,15.88
2023-04-05T15:29:09.712Z,15.65
2023-04-05T15:31:37.600Z,16.50
2023-04-05T15:34:07.096Z,15.83
2023-04-05T15:36:36.249Z,15.33
2023-04-05T15:39:05.165Z,14.52
2023-04-05T15:41:34.561Z,14.67
2023-04-05T15:44:04.076Z,13.28
2023-04-05T15:46:32.126Z,13.36
2023-04-05T15:49:00.474Z,13.57
2023-04-05T15:51:28.641Z,12.75
2023-04-05T15:53:56.588Z,14.79
2023-04-05T15:56:24.398Z,14.35
2023-04-05T15:58:52.306Z,13.69
2023-04-05T16:01:21.575Z,13.16
2023-04-05T16:03:50.037Z,12.65
2023-04-05T16:06:17.960Z,12.09
2023-04-05T16:08:46.059Z,12.36
2023-04-05T16:11:13.891Z,11.36
2023-04-05T16:13:41.728Z,11.13
2023-04-05T16:16:09.887Z,10.90
2023-04-05T16:18:39.160Z,11.43
2023-04-05T16:21:07.313Z,11.27
2023-04-05T16:23:35.473Z,11.36
2023-04-05T16:26:03.736Z,12.56
2023-04-05T16:28:31.851Z,12.34
2023-04-05T16:31:00.104Z,11.98
2023-04-05T16:33:28.214Z,12.03
2023-04-05T16:35:57.728Z,11.88
2023-04-05T16:38:26.243Z,11.67
2023-04-05T16:40:54.089Z,10.83
2023-04-05T16:43:22.014Z,10.86
2023-04-05T16:45:49.896Z,11.28
2023-04-05T16:48:17.764Z,11.37
2023-04-05T16:50:45.794Z,11.28
2023-04-05T16:53:16.038Z,10.82
2023-04-05T16:55:43.889Z,11.38
2023-04-05T16:58:13.606Z,10.80
2023-04-05T17:00:41.477Z,11.22
2023-04-05T17:03:09.370Z,10.79
2023-04-05T17:05:38.288Z,10.98
2023-04-05T17:08:09.116Z,10.85
2023-04-05T17:10:38.363Z,10.70
2023-04-05T17:13:07.031Z,10.73
2023-04-05T17:15:34.919Z,10.42
2023-04-05T17:18:02.873Z,10.64
2023-04-05T17:20:31.144Z,10.87
2023-04-05T17:22:59.546Z,10.81
2023-04-05T17:25:27.467Z,10.32
2023-04-05T17:27:56.700Z,10.43
2023-04-05T17:30:24.539Z,10.15
2023-04-05T17:32:52.957Z,9.66
2023-04-05T17:35:20.978Z,9.30
2023-04-05T17:37:48.961Z,9.97
2023-04-05T17:40:18.547Z,9.68
2023-04-05T17:42:46.515Z,9.56
2023-04-05T17:45:15.735Z,9.37
2023-04-05T17:47:43.699Z,9.67
2023-04-05T17:50:12.332Z,9.08
2023-04-05T17:52:40.495Z,9.39
2023-04-05T17:55:08.962Z,9.01
2023-04-05T17:57:36.883Z,9.55
2023-04-05T18:00:05.338Z,9.42
2023-04-05T18:02:37.132Z,9.16
2023-04-05T18:05:05.451Z,9.02
2023-04-05T18:07:36.321Z,8.83
2023-04-05T18:10:04.344Z,9.16
2023-04-05T18:12:32.402Z,9.48
2023-04-05T18:15:00.375Z,9.25
2023-04-05T18:17:28.476Z,8.99
2023-04-05T18:19:57.817Z,8.56
2023-04-05T18:22:26.136Z,8.70
2023-04-05T18:24:54.185Z,8.89
2023-04-05T18:27:22.056Z,8.93
2023-04-05T18:29:49.983Z,8.65
2023-04-05T18:32:17.961Z,8.91
2023-04-05T18:34:46.110Z,9.28
2023-04-05T18:37:15.409Z,8.83
2023-04-05T18:39:43.222Z,8.74
2023-04-05T18:42:11.276Z,9.45
2023-04-05T18:44:39.151Z,9.18
2023-04-05T18:47:07.612Z,9.67
2023-04-05T18:49:37.045Z,9.80
2023-04-05T18:52:04.909Z,9.79
2023-04-05T18:54:34.179Z,9.10
2023-04-05T18:57:02.009Z,9.45
2023-04-05T18:59:30.573Z,9.27
2023-04-05T19:01:58.481Z,9.06
2023-04-05T19:04:26.512Z,9.61
2023-04-05T19:06:54.356Z,9.15
2023-04-05T19:09:22.652Z,8.94
2023-04-05T19:11:52.015Z,9.01
2023-04-05T19:14:19.901Z,9.33
2023-04-05T19:16:47.751Z,9.30
2023-04-05T19:19:15.910Z,9.45
2023-04-05T19:21:43.840Z,9.46
2023-04-05T19:24:14.001Z,9.11
2023-04-05T19:26:42.086Z,8.95
2023-04-05T19:29:11.523Z,9.29
2023-04-05T19:31:40.011Z,9.35
2023-04-05T19:34:08.639Z,9.11
2023-04-05T19:36:37.284Z,8.78
2023-04-05T19:39:06.432Z,8.66
2023-04-05T19:41:34.600Z,8.41
2023-04-05T19:44:03.169Z,8.21
2023-04-05T19:46:33.713Z,9.03
2023-04-05T19:49:08.528Z,9.16
2023-04-05T19:51:36.964Z,9.15
2023-04-05T19:54:08.971Z,8.94
2023-04-05T19:56:39.014Z,9.10
2023-04-05T19:59:28.223Z,9.34
2023-04-05T20:01:58.824Z,9.17
2023-04-05T20:04:28.134Z,8.79
2023-04-05T20:06:56.679Z,8.71
2023-04-05T20:09:26.263Z,8.72
2023-04-05T20:11:56.804Z,8.41
2023-04-05T20:14:28.691Z,8.33
2023-04-05T20:16:59.457Z,8.42
2023-04-05T20:19:30.676Z,8.66
2023-04-05T20:21:59.488Z,8.72
2023-04-05T20:24:29.991Z,8.51
2023-04-05T20:26:57.896Z,8.41
2023-04-05T20:29:32.213Z,8.17
2023-04-05T20:32:02.495Z,8.02
2023-04-05T20:34:32.901Z,8.32
2023-04-05T20:37:01.918Z,8.13
2023-04-05T20:39:30.995Z,8.11
2023-04-05T20:41:58.952Z,8.23
2023-04-05T20:44:27.023Z,8.30
2023-04-05T20:46:57.140Z,8.23
2023-04-05T20:49:26.658Z,7.89
2023-04-05T20:51:55.775Z,8.37
2023-04-05T20:54:24.202Z,7.91
2023-04-05T20:56:52.076Z,8.05
2023-04-05T20:59:19.955Z,7.93
2023-04-05T21:01:49.134Z,7.80
2023-04-05T21:04:17.249Z,7.65
2023-04-05T21:06:46.456Z,7.84
2023-04-05T21:09:14.287Z,7.83
2023-04-05T21:11:42.139Z,7.62
2023-04-05T21:14:10.015Z,7.18
2023-04-05T21:16:37.847Z,7.29
2023-04-05T21:19:05.798Z,7.48
2023-04-05T21:21:33.689Z,7.30
2023-04-05T21:24:02.900Z,6.93
2023-04-05T21:26:30.741Z,7.28
2023-04-05T21:28:58.559Z,7.00
2023-04-05T21:31:27.123Z,7.03
2023-04-05T21:33:55.030Z,7.07
2023-04-05T21:36:22.824Z,7.14
2023-04-05T21:38:51.344Z,6.77
2023-04-05T21:41:21.228Z,6.66
2023-04-05T21:43:49.029Z,6.24
2023-04-05T21:48:44.985Z,6.06
2023-04-05T21:51:12.823Z,6.36
2023-04-05T21:53:40.645Z,5.91
2023-04-05T21:56:08.473Z,5.75
2023-04-05T21:58:37.708Z,5.76
2023-04-05T22:01:05.864Z,5.96
2023-04-05T22:03:33.735Z,6.04
2023-04-05T22:06:02.221Z,6.69
2023-04-05T22:08:30.037Z,5.85
2023-04-05T22:10:57.894Z,5.71
2023-04-05T22:13:25.783Z,5.56
2023-04-05T22:15:54.987Z,5.70
2023-04-05T22:18:25.428Z,5.76
2023-04-05T22:20:53.281Z,5.72
2023-04-05T22:23:21.392Z,5.48
2023-04-05T22:25:49.179Z,5.14
2023-04-05T22:28:16.981Z,5.36
2023-04-05T22:30:44.809Z,5.42
2023-04-05T22:33:14.062Z,5.37
2023-04-05T22:35:42.447Z,5.53
2023-04-05T22:38:10.310Z,5.27
2023-04-05T22:40:38.163Z,5.47
2023-04-05T22:43:06.498Z,5.71
2023-04-05T22:45:34.405Z,5.48
2023-04-05T22:48:02.243Z,5.50
2023-04-05T22:50:31.550Z,5.79
2023-04-05T22:52:59.520Z,5.68
2023-04-05T22:55:27.337Z,5.60
2023-04-05T22:57:55.135Z,5.46
2023-04-05T23:00:23.251Z,5.41
2023-04-05T23:02:51.136Z,5.65
2023-04-05T23:05:19.028Z,5.59
2023-04-05T23:07:48.300Z,5.86
2023-04-05T23:10:16.263Z,5.57
2023-04-05T23:12:44.397Z,5.40
2023-04-05T23:15:13.423Z,5.57
2023-04-05T23:17:41.522Z,5.74
2023-04-05T23:20:10.345Z,5.62
2023-04-05T23:22:38.140Z,5.56
2023-04-05T23:25:08.881Z,5.87
2023-04-05T23:27:36.720Z,5.96
2023-04-05T23:30:04.971Z,5.20
2023-04-05T23:32:32.806Z,5.10
2023-04-05T23:35:00.629Z,4.99
2023-04-05T23:37:28.474Z,5.19
2023-04-05T23:39:56.375Z,4.94
2023-04-05T23:42:25.714Z,5.04
2023-04-05T23:44:53.511Z,5.04
2023-04-05T23:47:21.283Z,5.00
2023-04-05T23:49:49.104Z,5.12
2023-04-05T23:52:16.931Z,5.51
2023-04-05T23:54:44.746Z,5.14
2023-04-05T23:57:12.591Z,5.46
2023-04-05T23:59:41.828Z,5.64
